Time;durP1;ratioP1;P1;durP2;ratioP2;P2;SDS_P1;SDS_P2;PMS_P1;PMS_P2;Temp;Humidity;BMP_temperature;BMP_pressure;BME280_temperature;BME280_humidity;BME280_pressure;Samples;Min_cycle;Max_cycle;Signal;HPM_P1;HPM_P2
2023/08/02 00:02:27;;;;;;;;;;;15.60;99.90;;;;;;12467285;28;19921;-48
2023/08/02 00:08:29;;;;;;;;;;;15.60;99.90;;;;;;12437645;28;19924;-49
2023/08/02 00:14:31;;;;;;;;;;;15.60;99.90;;;;;;12461044;28;20304;-49
2023/08/02 00:20:33;;;;;;;;;;;15.50;99.90;;;;;;12445082;28;19944;-47
2023/08/02 00:26:35;;;;;;;;;;;15.40;99.90;;;;;;12456844;28;20262;-49
2023/08/02 00:32:44;;;;;;;;;;;15.50;99.90;;;;;;12438464;28;19943;-50
2023/08/02 00:38:46;;;;;;;;;;;15.50;99.90;;;;;;12463412;28;19921;-49
2023/08/02 00:44:47;;;;;;;;;;;15.50;99.90;;;;;;12471913;28;19967;-47
2023/08/02 00:50:49;;;;;;;;;;;15.40;99.90;;;;;;12458030;28;20353;-48
2023/08/02 00:56:51;;;;;;;;;;;15.50;99.90;;;;;;12469306;28;19927;-47
2023/08/02 01:02:53;;;;;;;;;;;15.50;99.90;;;;;;12463685;28;20610;-49
2023/08/02 01:09:14;;;;;;;;;;;15.50;99.90;;;;;;12458512;28;19929;-48
2023/08/02 01:15:16;;;;;;;;;;;15.40;99.90;;;;;;12464925;28;19968;-49
2023/08/02 01:21:18;;;;;;;;;;;15.40;99.90;;;;;;12453519;28;20368;-47
2023/08/02 01:27:22;;;;;;;;;;;15.30;99.90;;;;;;12450903;28;20201;-47
2023/08/02 01:33:25;;;;;;;;;;;15.30;99.90;;;;;;12462371;28;20015;-47
2023/08/02 01:39:27;;;;;;;;;;;15.20;99.90;;;;;;12453641;28;19952;-47
2023/08/02 01:45:29;;;;;;;;;;;15.20;99.90;;;;;;12458344;28;20305;-47
2023/08/02 01:51:31;;;;;;;;;;;15.20;99.90;;;;;;12479469;28;20368;-50
2023/08/02 01:57:32;;;;;;;;;;;15.00;99.90;;;;;;12458436;28;20015;-48
2023/08/02 02:03:34;;;;;;;;;;;14.90;99.90;;;;;;12449633;28;19960;-48
2023/08/02 02:09:36;;;;;;;;;;;14.80;99.90;;;;;;12460045;28;19978;-48
2023/08/02 02:15:38;;;;;;;;;;;14.70;99.90;;;;;;12459950;28;19921;-47
2023/08/02 02:21:39;;;;;;;;;;;14.70;99.90;;;;;;12450179;28;19925;-46
2023/08/02 02:27:41;;;;;;;;;;;14.70;99.90;;;;;;12459983;28;19990;-49
2023/08/02 02:33:43;;;;;;;;;;;14.60;99.90;;;;;;12472201;28;19920;-48
2023/08/02 02:39:45;;;;;;;;;;;14.60;99.90;;;;;;12467853;28;20056;-49
2023/08/02 02:45:46;;;;;;;;;;;14.60;99.90;;;;;;12476450;28;19920;-47
2023/08/02 02:51:48;;;;;;;;;;;14.60;99.90;;;;;;12470824;28;20016;-49
2023/08/02 02:57:50;;;;;;;;;;;14.60;99.90;;;;;;12456137;28;20388;-48
2023/08/02 03:03:52;;;;;;;;;;;14.60;99.90;;;;;;12466591;28;19925;-49
2023/08/02 03:09:54;;;;;;;;;;;14.60;99.90;;;;;;12467329;28;19977;-46
2023/08/02 03:15:56;;;;;;;;;;;14.60;99.90;;;;;;12466542;28;20148;-50
2023/08/02 03:21:57;;;;;;;;;;;14.50;99.90;;;;;;12469166;28;20383;-48
2023/08/02 03:27:59;;;;;;;;;;;14.50;99.90;;;;;;12448913;28;20023;-47
2023/08/02 03:34:01;;;;;;;;;;;14.50;99.90;;;;;;12474039;28;19928;-47
2023/08/02 03:40:03;;;;;;;;;;;14.50;99.90;;;;;;12469599;28;19968;-48
2023/08/02 03:46:05;;;;;;;;;;;14.40;99.90;;;;;;12466871;28;19982;-47
2023/08/02 03:52:06;;;;;;;;;;;14.30;99.90;;;;;;12460762;28;19928;-47
2023/08/02 03:58:08;;;;;;;;;;;14.40;99.90;;;;;;12465082;28;20016;-48
2023/08/02 04:04:10;;;;;;;;;;;14.30;99.90;;;;;;12468309;28;20035;-47
2023/08/02 04:10:12;;;;;;;;;;;14.40;99.90;;;;;;12442400;28;19921;-47
2023/08/02 04:16:13;;;;;;;;;;;14.40;99.90;;;;;;12461873;28;19925;-50
2023/08/02 04:22:15;;;;;;;;;;;14.70;99.90;;;;;;12446704;28;19929;-49
2023/08/02 04:28:17;;;;;;;;;;;16.00;99.90;;;;;;12463452;28;20301;-50
2023/08/02 04:34:19;;;;;;;;;;;17.30;99.90;;;;;;12448580;28;19925;-47
2023/08/02 04:40:20;;;;;;;;;;;16.70;99.90;;;;;;12448426;28;19967;-48
2023/08/02 04:46:24;;;;;;;;;;;15.90;99.90;;;;;;12465973;28;20067;-48
2023/08/02 04:52:26;;;;;;;;;;;15.30;99.90;;;;;;12467336;28;20259;-49
2023/08/02 04:58:28;;;;;;;;;;;14.90;99.90;;;;;;12450256;28;19936;-48
2023/08/02 05:04:30;;;;;;;;;;;14.80;99.90;;;;;;12458706;28;20430;-47
2023/08/02 05:10:32;;;;;;;;;;;14.70;99.90;;;;;;12440870;28;19922;-48
2023/08/02 05:16:35;;;;;;;;;;;14.80;99.90;;;;;;12451690;28;20028;-50
2023/08/02 05:22:37;;;;;;;;;;;14.80;99.90;;;;;;12460179;28;20326;-46
2023/08/02 05:28:39;;;;;;;;;;;14.90;99.90;;;;;;12457393;28;20299;-49
2023/08/02 05:34:40;;;;;;;;;;;15.20;99.90;;;;;;12460414;28;19960;-49
2023/08/02 05:40:42;;;;;;;;;;;15.30;99.90;;;;;;12460921;28;19928;-47
2023/08/02 05:46:44;;;;;;;;;;;15.40;99.90;;;;;;12458825;28;19971;-48
2023/08/02 05:52:46;;;;;;;;;;;15.50;99.90;;;;;;12460799;28;19928;-47
2023/08/02 05:58:47;;;;;;;;;;;15.40;99.90;;;;;;12453749;28;20007;-49
2023/08/02 06:04:49;;;;;;;;;;;15.50;99.90;;;;;;12454549;28;20356;-48
2023/08/02 06:10:51;;;;;;;;;;;15.60;99.90;;;;;;12466888;28;19921;-47
2023/08/02 06:16:53;;;;;;;;;;;15.60;99.90;;;;;;12460726;28;19921;-48
2023/08/02 06:22:54;;;;;;;;;;;15.70;99.90;;;;;;12450681;28;19967;-50
2023/08/02 06:28:56;;;;;;;;;;;15.80;99.90;;;;;;12458343;28;19924;-47
2023/08/02 06:34:58;;;;;;;;;;;15.90;99.90;;;;;;12461778;28;20368;-48
2023/08/02 06:41:00;;;;;;;;;;;15.90;99.90;;;;;;12440451;28;20028;-48
2023/08/02 06:47:02;;;;;;;;;;;15.90;99.90;;;;;;12456605;28;19967;-50
2023/08/02 06:53:06;;;;;;;;;;;16.10;99.90;;;;;;12457566;28;19960;-49
2023/08/02 06:59:08;;;;;;;;;;;16.50;99.90;;;;;;12467621;28;19921;-47
2023/08/02 07:05:11;;;;;;;;;;;16.70;99.90;;;;;;12465222;28;19928;-47
2023/08/02 07:11:13;;;;;;;;;;;17.00;99.90;;;;;;12467778;28;19959;-48
2023/08/02 07:17:31;;;;;;;;;;;17.20;99.90;;;;;;12468014;28;20280;-47
2023/08/02 07:23:33;;;;;;;;;;;17.30;99.90;;;;;;12466302;28;19970;-47
2023/08/02 07:29:34;;;;;;;;;;;17.50;99.90;;;;;;12456041;28;19956;-47
2023/08/02 07:35:36;;;;;;;;;;;17.60;99.90;;;;;;12468197;28;19936;-46
2023/08/02 07:41:40;;;;;;;;;;;17.40;99.90;;;;;;12452720;28;20277;-47
2023/08/02 07:47:42;;;;;;;;;;;17.60;99.90;;;;;;12462210;28;20737;-47
2023/08/02 07:53:44;;;;;;;;;;;17.70;99.90;;;;;;12465473;28;19921;-51
2023/08/02 07:59:46;;;;;;;;;;;17.60;99.90;;;;;;12467689;28;19932;-50
2023/08/02 08:05:48;;;;;;;;;;;17.60;99.90;;;;;;12453967;28;20559;-49
2023/08/02 08:11:50;;;;;;;;;;;17.40;99.90;;;;;;12463377;28;20282;-47
2023/08/02 08:17:51;;;;;;;;;;;17.30;99.90;;;;;;12461747;28;20483;-47
2023/08/02 08:23:53;;;;;;;;;;;17.10;99.90;;;;;;12466310;28;19921;-47
2023/08/02 08:29:55;;;;;;;;;;;17.10;99.90;;;;;;12470034;28;20067;-48
2023/08/02 08:35:57;;;;;;;;;;;17.00;99.90;;;;;;12450264;28;21197;-48
2023/08/02 08:41:59;;;;;;;;;;;16.90;99.90;;;;;;12445251;28;19925;-48
2023/08/02 08:48:01;;;;;;;;;;;17.00;99.90;;;;;;12448497;28;19979;-50
2023/08/02 08:54:11;;;;;;;;;;;17.10;99.90;;;;;;12452037;28;19967;-48
2023/08/02 09:00:15;;;;;;;;;;;17.00;99.90;;;;;;12465629;28;20063;-48
2023/08/02 09:06:17;;;;;;;;;;;16.90;99.90;;;;;;12477141;28;20491;-48
2023/08/02 09:12:19;;;;;;;;;;;16.90;99.90;;;;;;12435395;28;19960;-46
2023/08/02 09:18:33;;;;;;;;;;;16.90;99.90;;;;;;12468838;28;20027;-50
2023/08/02 09:24:36;;;;;;;;;;;16.90;99.90;;;;;;12448682;28;19925;-48
2023/08/02 09:30:40;;;;;;;;;;;16.80;99.90;;;;;;12458981;28;19928;-47
2023/08/02 09:36:44;;;;;;;;;;;16.60;99.90;;;;;;12449907;28;19978;-49
2023/08/02 09:42:46;;;;;;;;;;;16.50;99.90;;;;;;12455466;28;20369;-47
2023/08/02 09:48:47;;;;;;;;;;;16.40;99.90;;;;;;12446015;28;19929;-48
2023/08/02 09:54:49;;;;;;;;;;;16.40;99.90;;;;;;12440334;28;20259;-48
2023/08/02 10:00:51;;;;;;;;;;;16.50;99.90;;;;;;12444583;28;19928;-49
2023/08/02 10:07:00;;;;;;;;;;;16.50;99.90;;;;;;12451500;28;19925;-51
2023/08/02 10:13:08;;;;;;;;;;;16.60;99.90;;;;;;12444274;28;19972;-51
2023/08/02 10:19:11;;;;;;;;;;;16.50;99.90;;;;;;12451244;28;20361;-50
2023/08/02 10:25:13;;;;;;;;;;;16.40;99.90;;;;;;12442260;28;19972;-48
2023/08/02 10:31:15;;;;;;;;;;;16.30;99.90;;;;;;12459464;28;19986;-49
2023/08/02 10:37:18;;;;;;;;;;;16.30;99.90;;;;;;12454981;28;20411;-48
2023/08/02 10:43:20;;;;;;;;;;;16.30;99.90;;;;;;12457984;28;20047;-48
2023/08/02 10:49:24;;;;;;;;;;;16.30;99.90;;;;;;12467827;28;19956;-49
2023/08/02 10:55:25;;;;;;;;;;;16.30;99.90;;;;;;12465042;28;20011;-47
2023/08/02 11:01:27;;;;;;;;;;;16.30;99.90;;;;;;12471285;28;19925;-47
2023/08/02 11:07:29;;;;;;;;;;;16.40;99.90;;;;;;12458745;28;19921;-48
2023/08/02 11:13:39;;;;;;;;;;;16.50;99.90;;;;;;12468448;28;19933;-48
2023/08/02 11:19:45;;;;;;;;;;;16.60;99.90;;;;;;12455389;28;20363;-49
2023/08/02 11:26:06;;;;;;;;;;;16.80;99.90;;;;;;12454697;28;20349;-47
2023/08/02 11:32:11;;;;;;;;;;;16.90;99.90;;;;;;12466154;28;20024;-49
2023/08/02 11:38:13;;;;;;;;;;;17.00;99.90;;;;;;12465148;28;19951;-51
2023/08/02 11:44:15;;;;;;;;;;;17.30;99.90;;;;;;12470804;28;19921;-48
2023/08/02 11:50:22;;;;;;;;;;;17.60;99.90;;;;;;12471396;28;19987;-48
2023/08/02 11:56:25;;;;;;;;;;;17.80;99.90;;;;;;12465972;28;19948;-49
2023/08/02 12:02:27;;;;;;;;;;;17.60;99.90;;;;;;12453095;28;19974;-51
2023/08/02 12:08:29;;;;;;;;;;;17.60;99.90;;;;;;12471306;28;19921;-52
2023/08/02 12:14:31;;;;;;;;;;;17.60;99.90;;;;;;12462790;28;19950;-50
2023/08/02 12:20:37;;;;;;;;;;;17.60;99.90;;;;;;12458626;28;20292;-47
2023/08/02 12:26:39;;;;;;;;;;;17.60;99.90;;;;;;12451396;28;20377;-48
2023/08/02 12:32:42;;;;;;;;;;;17.60;99.90;;;;;;12479894;28;19924;-51
2023/08/02 12:38:43;;;;;;;;;;;17.60;99.90;;;;;;12463505;28;19944;-47
2023/08/02 12:44:45;;;;;;;;;;;17.40;99.90;;;;;;12445203;28;19964;-50
2023/08/02 12:50:47;;;;;;;;;;;17.40;99.90;;;;;;12456361;28;20004;-48
2023/08/02 12:56:49;;;;;;;;;;;17.40;99.90;;;;;;12470866;28;19921;-50
2023/08/02 13:02:51;;;;;;;;;;;17.60;99.90;;;;;;12449029;28;19932;-51
2023/08/02 13:08:52;;;;;;;;;;;18.30;99.90;;;;;;12441058;28;19925;-52
2023/08/02 13:14:54;;;;;;;;;;;18.70;99.90;;;;;;12448523;28;20032;-50
2023/08/02 13:20:56;;;;;;;;;;;19.10;99.90;;;;;;12475889;28;19925;-49
2023/08/02 13:26:58;;;;;;;;;;;19.20;99.90;;;;;;12448242;28;19937;-51
2023/08/02 13:33:00;;;;;;;;;;;19.20;99.90;;;;;;12453830;28;19944;-51
2023/08/02 13:39:02;;;;;;;;;;;19.20;99.90;;;;;;12459422;28;19932;-52
2023/08/02 13:45:04;;;;;;;;;;;19.10;99.90;;;;;;12446926;28;19963;-50
2023/08/02 13:51:06;;;;;;;;;;;18.90;99.90;;;;;;12441098;28;19928;-50
2023/08/02 13:57:07;;;;;;;;;;;18.70;99.90;;;;;;12470210;28;19921;-49
2023/08/02 14:03:09;;;;;;;;;;;18.60;99.90;;;;;;12464307;28;19921;-50
2023/08/02 14:09:11;;;;;;;;;;;18.60;99.90;;;;;;12451994;28;19921;-47
2023/08/02 14:15:13;;;;;;;;;;;18.50;99.90;;;;;;12462762;28;19982;-49
2023/08/02 14:21:14;;;;;;;;;;;18.50;99.90;;;;;;12469998;28;19925;-49
2023/08/02 14:27:16;;;;;;;;;;;18.50;99.90;;;;;;12465546;28;20016;-48
2023/08/02 14:33:18;;;;;;;;;;;18.40;99.90;;;;;;12464176;28;20438;-48
2023/08/02 14:39:19;;;;;;;;;;;18.20;99.90;;;;;;12456300;28;19971;-49
2023/08/02 14:45:21;;;;;;;;;;;18.00;99.90;;;;;;12438833;28;19948;-49
2023/08/02 14:51:23;;;;;;;;;;;17.80;99.90;;;;;;12459458;28;19949;-49
2023/08/02 14:57:25;;;;;;;;;;;17.30;99.90;;;;;;12450887;28;19970;-48
2023/08/02 15:03:26;;;;;;;;;;;17.10;99.90;;;;;;12459407;28;19975;-49
2023/08/02 15:09:30;;;;;;;;;;;17.30;99.90;;;;;;12454822;28;19933;-50
2023/08/02 15:15:35;;;;;;;;;;;17.30;99.90;;;;;;12442811;28;20285;-36
2023/08/02 15:21:42;;;;;;;;;;;17.30;99.90;;;;;;12449333;23;19932;-36
2023/08/02 15:27:46;;;;;;;;;;;17.20;99.90;;;;;;12424724;28;20024;-36
2023/08/02 15:33:55;;;;;;;;;;;17.10;99.90;;;;;;12415038;28;20399;-36
2023/08/02 15:39:59;;;;;;;;;;;17.00;99.90;;;;;;12408242;28;20289;-36
2023/08/02 15:46:02;;;;;;;;;;;16.90;99.90;;;;;;12423079;28;20365;-36
2023/08/02 15:52:09;;;;;;;;;;;16.80;99.90;;;;;;12350634;28;19970;-36
2023/08/02 15:59:50;;;;;;;;;;;16.80;99.90;;;;;;12104907;27;2656199;-35
2023/08/02 16:05:59;;;;;;;;;;;17.30;99.90;;;;;;12529252;28;19925;-35
2023/08/02 16:12:06;;;;;;;;;;;17.60;99.90;;;;;;12591886;28;19925;-35
2023/08/02 16:18:21;;;;;;;;;;;17.80;99.90;;;;;;12596051;28;19932;-35
2023/08/02 16:24:25;;;;;;;;;;;18.10;99.90;;;;;;12615257;28;20392;-35
2023/08/02 16:30:32;;;;;;;;;;;18.60;99.90;;;;;;12584053;28;19963;-36
2023/08/02 16:36:37;;;;;;;;;;;18.80;99.90;;;;;;12608423;28;20315;-36
2023/08/02 16:42:46;;;;;;;;;;;19.10;99.90;;;;;;12589668;28;19966;-35
2023/08/02 16:48:57;;;;;;;;;;;19.30;99.90;;;;;;12591776;28;19935;-37
2023/08/02 16:55:02;;;;;;;;;;;19.60;99.90;;;;;;12590346;28;19947;-36
2023/08/02 17:01:07;;;;;;;;;;;19.90;99.90;;;;;;12592364;28;20300;-36
2023/08/02 17:07:13;;;;;;;;;;;20.10;99.90;;;;;;12582451;28;19970;-35
2023/08/02 17:13:25;;;;;;;;;;;19.70;99.90;;;;;;12570742;28;19947;-35
2023/08/02 17:19:33;;;;;;;;;;;19.40;99.90;;;;;;12586094;28;19924;-37
2023/08/02 17:25:46;;;;;;;;;;;19.10;99.90;;;;;;12571373;28;19931;-35
2023/08/02 17:31:54;;;;;;;;;;;18.90;99.90;;;;;;12583163;28;19929;-35
2023/08/02 17:38:07;;;;;;;;;;;18.80;99.90;;;;;;12565679;28;19994;-35
2023/08/02 17:44:19;;;;;;;;;;;18.70;99.90;;;;;;12553968;28;19925;-36
2023/08/02 17:50:25;;;;;;;;;;;18.60;99.90;;;;;;12558705;28;20308;-35
2023/08/02 17:56:40;;;;;;;;;;;18.60;99.90;;;;;;12574246;28;19925;-35
2023/08/02 18:02:53;;;;;;;;;;;18.50;99.90;;;;;;12565528;28;20011;-35
2023/08/02 18:09:08;;;;;;;;;;;18.40;99.90;;;;;;12546648;28;19963;-35
2023/08/02 18:15:16;;;;;;;;;;;18.40;99.90;;;;;;12563845;28;20380;-35
2023/08/02 18:21:27;;;;;;;;;;;18.30;99.90;;;;;;12553675;28;19932;-36
2023/08/02 18:27:34;;;;;;;;;;;18.20;99.90;;;;;;12560170;28;19929;-35
2023/08/02 18:33:45;;;;;;;;;;;18.10;99.90;;;;;;12566594;28;19967;-36
2023/08/02 18:39:56;;;;;;;;;;;18.00;99.90;;;;;;12560238;28;19950;-36
2023/08/02 18:46:02;;;;;;;;;;;17.90;99.90;;;;;;12550218;28;20281;-36
2023/08/02 18:52:09;;;;;;;;;;;17.90;99.90;;;;;;12557621;28;20013;-36
2023/08/02 18:58:20;;;;;;;;;;;17.80;99.90;;;;;;12554488;28;20384;-37
2023/08/02 19:04:34;;;;;;;;;;;17.70;99.90;;;;;;12558886;28;20258;-36
2023/08/02 19:10:38;;;;;;;;;;;17.60;99.90;;;;;;12574372;28;19971;-35
2023/08/02 19:16:52;;;;;;;;;;;17.60;99.90;;;;;;12580467;28;19924;-35
2023/08/02 19:23:00;;;;;;;;;;;17.50;99.90;;;;;;12551527;28;19932;-35
2023/08/02 19:29:12;;;;;;;;;;;17.40;99.90;;;;;;12553577;28;20288;-35
2023/08/02 19:35:17;;;;;;;;;;;17.30;99.90;;;;;;12548028;28;19974;-35
2023/08/02 19:41:37;;;;;;;;;;;17.20;99.90;;;;;;12545936;28;19974;-35
2023/08/02 19:47:44;;;;;;;;;;;17.20;99.90;;;;;;12553107;28;19925;-35
2023/08/02 19:53:53;;;;;;;;;;;17.20;99.90;;;;;;12552918;28;19974;-36
2023/08/02 19:59:57;;;;;;;;;;;17.20;99.90;;;;;;12552353;28;20405;-36
2023/08/02 20:06:02;;;;;;;;;;;17.20;99.90;;;;;;12550070;28;19939;-35
2023/08/02 20:12:13;;;;;;;;;;;17.20;99.90;;;;;;12550655;28;19929;-35
2023/08/02 20:18:18;;;;;;;;;;;17.10;99.90;;;;;;12554267;28;19977;-35
2023/08/02 20:24:35;;;;;;;;;;;16.80;99.90;;;;;;12535473;28;19924;-35
2023/08/02 20:30:50;;;;;;;;;;;16.70;99.90;;;;;;12544902;28;19924;-35
2023/08/02 20:37:00;;;;;;;;;;;16.60;99.90;;;;;;12542091;28;19925;-35
2023/08/02 20:43:14;;;;;;;;;;;16.40;99.90;;;;;;12554787;28;19925;-35
2023/08/02 20:49:24;;;;;;;;;;;16.40;99.90;;;;;;12564597;28;19925;-35
2023/08/02 20:55:37;;;;;;;;;;;16.40;99.90;;;;;;12572340;28;20402;-35
2023/08/02 21:01:48;;;;;;;;;;;16.40;99.90;;;;;;12584842;28;20365;-35
2023/08/02 21:08:01;;;;;;;;;;;16.40;99.90;;;;;;12570674;28;19924;-35
2023/08/02 21:14:08;;;;;;;;;;;16.30;99.90;;;;;;12557563;28;19932;-36
2023/08/02 21:20:47;;;;;;;;;;;16.30;99.90;;;;;;12545254;28;20404;-35
2023/08/02 21:26:48;;;;;;;;;;;16.30;99.90;;;;;;12538145;28;19949;-35
2023/08/02 21:32:50;;;;;;;;;;;16.30;99.90;;;;;;12550207;28;19929;-35
2023/08/02 21:38:52;;;;;;;;;;;16.30;99.90;;;;;;12572068;28;19947;-35
2023/08/02 21:44:57;;;;;;;;;;;16.30;99.90;;;;;;12561570;28;19933;-35
2023/08/02 21:50:59;;;;;;;;;;;16.20;99.90;;;;;;12558938;28;19964;-37
2023/08/02 21:57:01;;;;;;;;;;;16.20;99.90;;;;;;12553305;28;19947;-35
2023/08/02 22:03:04;;;;;;;;;;;16.20;99.90;;;;;;12543665;28;20269;-35
2023/08/02 22:09:07;;;;;;;;;;;16.20;99.90;;;;;;12545611;28;19936;-36
2023/08/02 22:15:09;;;;;;;;;;;16.10;99.90;;;;;;12532554;28;20384;-35
2023/08/02 22:21:12;;;;;;;;;;;16.10;99.90;;;;;;12544269;28;20743;-35
2023/08/02 22:27:14;;;;;;;;;;;16.10;99.90;;;;;;12549159;28;19975;-35
2023/08/02 22:33:16;;;;;;;;;;;16.10;99.90;;;;;;12549309;28;20372;-37
2023/08/02 22:39:18;;;;;;;;;;;16.10;99.90;;;;;;12538251;28;19925;-34
2023/08/02 22:45:19;;;;;;;;;;;16.20;99.90;;;;;;12542149;28;19974;-35
2023/08/02 22:51:21;;;;;;;;;;;16.10;99.90;;;;;;12551377;28;20015;-36
2023/08/02 22:57:24;;;;;;;;;;;16.10;99.90;;;;;;12543319;28;20436;-35
2023/08/02 23:03:34;;;;;;;;;;;16.20;99.90;;;;;;12565203;28;20309;-36
2023/08/02 23:09:37;;;;;;;;;;;16.30;99.90;;;;;;12536776;28;19933;-35
2023/08/02 23:15:40;;;;;;;;;;;16.20;99.90;;;;;;12532311;28;19925;-37
2023/08/02 23:21:42;;;;;;;;;;;16.10;99.90;;;;;;12530654;28;20475;-35
2023/08/02 23:27:45;;;;;;;;;;;16.00;99.90;;;;;;12547011;28;20077;-37
2023/08/02 23:33:47;;;;;;;;;;;15.90;99.90;;;;;;12541582;28;19973;-37
2023/08/02 23:39:49;;;;;;;;;;;15.80;99.90;;;;;;12529721;28;19924;-38
2023/08/02 23:45:50;;;;;;;;;;;15.80;99.90;;;;;;12542500;28;19925;-36
2023/08/02 23:51:52;;;;;;;;;;;15.80;99.90;;;;;;12541728;28;19929;-35
2023/08/02 23:57:54;;;;;;;;;;;15.90;99.90;;;;;;12532847;28;19933;-37
